sensor_id;sensor_type;location;lat;lon;timestamp;temperature;humidity
13336;DHT22;6737;51.480;11.962;2023-08-24T00:00:41;17.90;99.90
13336;DHT22;6737;51.480;11.962;2023-08-24T00:03:07;17.90;99.90
13336;DHT22;6737;51.480;11.962;2023-08-24T00:05:34;17.90;99.90
13336;DHT22;6737;51.480;11.962;2023-08-24T00:08:05;17.80;99.90
13336;DHT22;6737;51.480;11.962;2023-08-24T00:10:31;17.70;99.90
13336;DHT22;6737;51.480;11.962;2023-08-24T00:12:57;17.70;99.90
13336;DHT22;6737;51.480;11.962;2023-08-24T00:15:23;17.80;99.90
13336;DHT22;6737;51.480;11.962;2023-08-24T00:17:48;17.80;99.90
13336;DHT22;6737;51.480;11.962;2023-08-24T00:20:15;17.80;99.90
13336;DHT22;6737;51.480;11.962;2023-08-24T00:22:41;17.70;99.90
13336;DHT22;6737;51.480;11.962;2023-08-24T00:25:08;17.70;99.90
13336;DHT22;6737;51.480;11.962;2023-08-24T00:27:35;17.70;99.90
13336;DHT22;6737;51.480;11.962;2023-08-24T00:30:05;17.70;99.90
13336;DHT22;6737;51.480;11.962;2023-08-24T00:32:35;17.70;99.90
13336;DHT22;6737;51.480;11.962;2023-08-24T00:35:02;17.80;99.90
13336;DHT22;6737;51.480;11.962;2023-08-24T00:37:30;17.80;99.90
13336;DHT22;6737;51.480;11.962;2023-08-24T00:39:56;17.80;99.90
13336;DHT22;6737;51.480;11.962;2023-08-24T00:42:22;17.80;99.90
13336;DHT22;6737;51.480;11.962;2023-08-24T00:44:51;17.70;99.90
13336;DHT22;6737;51.480;11.962;2023-08-24T00:47:17;17.70;99.90
13336;DHT22;6737;51.480;11.962;2023-08-24T00:49:43;17.60;99.90
13336;DHT22;6737;51.480;11.962;2023-08-24T00:52:10;17.60;99.90
13336;DHT22;6737;51.480;11.962;2023-08-24T00:54:38;17.70;99.90
13336;DHT22;6737;51.480;11.962;2023-08-24T00:57:05;17.70;99.90
13336;DHT22;6737;51.480;11.962;2023-08-24T00:59:32;17.60;99.90
13336;DHT22;6737;51.480;11.962;2023-08-24T01:01:59;17.70;99.90
13336;DHT22;6737;51.480;11.962;2023-08-24T01:04:25;17.70;99.90
13336;DHT22;6737;51.480;11.962;2023-08-24T01:06:51;17.70;99.90
13336;DHT22;6737;51.480;11.962;2023-08-24T01:09:18;17.60;99.90
13336;DHT22;6737;51.480;11.962;2023-08-24T01:15:04;17.70;99.90
13336;DHT22;6737;51.480;11.962;2023-08-24T01:17:31;17.50;99.90
13336;DHT22;6737;51.480;11.962;2023-08-24T01:19:58;17.50;99.90
13336;DHT22;6737;51.480;11.962;2023-08-24T01:27:34;17.40;99.90
13336;DHT22;6737;51.480;11.962;2023-08-24T01:30:04;17.50;99.90
13336;DHT22;6737;51.480;11.962;2023-08-24T01:32:35;17.50;99.90
13336;DHT22;6737;51.480;11.962;2023-08-24T01:35:08;17.40;99.90
13336;DHT22;6737;51.480;11.962;2023-08-24T01:37:35;17.40;99.90
13336;DHT22;6737;51.480;11.962;2023-08-24T01:40:16;17.40;99.90
13336;DHT22;6737;51.480;11.962;2023-08-24T01:42:55;17.30;99.90
13336;DHT22;6737;51.480;11.962;2023-08-24T01:45:24;17.30;99.90
13336;DHT22;6737;51.480;11.962;2023-08-24T01:47:52;17.20;99.90
13336;DHT22;6737;51.480;11.962;2023-08-24T01:50:19;17.20;99.90
13336;DHT22;6737;51.480;11.962;2023-08-24T01:52:45;17.30;99.90
13336;DHT22;6737;51.480;11.962;2023-08-24T01:55:11;17.30;99.90
13336;DHT22;6737;51.480;11.962;2023-08-24T01:57:38;17.20;99.90
13336;DHT22;6737;51.480;11.962;2023-08-24T02:00:04;17.20;99.90
13336;DHT22;6737;51.480;11.962;2023-08-24T02:02:35;17.30;99.90
13336;DHT22;6737;51.480;11.962;2023-08-24T02:05:02;17.30;99.90
13336;DHT22;6737;51.480;11.962;2023-08-24T02:07:28;17.30;99.90
13336;DHT22;6737;51.480;11.962;2023-08-24T02:09:54;17.20;99.90
13336;DHT22;6737;51.480;11.962;2023-08-24T02:12:20;17.20;99.90
13336;DHT22;6737;51.480;11.962;2023-08-24T02:14:46;17.20;99.90
13336;DHT22;6737;51.480;11.962;2023-08-24T02:17:12;17.20;99.90
13336;DHT22;6737;51.480;11.962;2023-08-24T02:19:40;17.20;99.90
13336;DHT22;6737;51.480;11.962;2023-08-24T02:22:07;17.10;99.90
13336;DHT22;6737;51.480;11.962;2023-08-24T02:24:33;17.10;99.90
13336;DHT22;6737;51.480;11.962;2023-08-24T02:27:00;17.10;99.90
13336;DHT22;6737;51.480;11.962;2023-08-24T02:29:26;17.10;99.90
13336;DHT22;6737;51.480;11.962;2023-08-24T02:31:53;17.10;99.90
13336;DHT22;6737;51.480;11.962;2023-08-24T02:34:19;17.00;99.90
13336;DHT22;6737;51.480;11.962;2023-08-24T02:36:45;17.00;99.90
13336;DHT22;6737;51.480;11.962;2023-08-24T02:39:11;16.90;99.90
13336;DHT22;6737;51.480;11.962;2023-08-24T02:41:36;16.90;99.90
13336;DHT22;6737;51.480;11.962;2023-08-24T02:44:03;16.90;99.90
13336;DHT22;6737;51.480;11.962;2023-08-24T02:46:28;16.90;99.90
13336;DHT22;6737;51.480;11.962;2023-08-24T02:48:54;16.80;99.90
13336;DHT22;6737;51.480;11.962;2023-08-24T02:51:23;16.80;99.90
13336;DHT22;6737;51.480;11.962;2023-08-24T02:53:50;16.90;99.90
13336;DHT22;6737;51.480;11.962;2023-08-24T02:56:16;16.90;99.90
13336;DHT22;6737;51.480;11.962;2023-08-24T02:58:42;16.90;99.90
13336;DHT22;6737;51.480;11.962;2023-08-24T03:01:08;16.80;99.90
13336;DHT22;6737;51.480;11.962;2023-08-24T03:03:37;16.80;99.90
13336;DHT22;6737;51.480;11.962;2023-08-24T03:06:04;16.80;99.90
13336;DHT22;6737;51.480;11.962;2023-08-24T03:08:32;16.80;99.90
13336;DHT22;6737;51.480;11.962;2023-08-24T03:10:59;16.70;99.90
13336;DHT22;6737;51.480;11.962;2023-08-24T03:13:27;16.70;99.90
13336;DHT22;6737;51.480;11.962;2023-08-24T03:15:54;16.70;99.90
13336;DHT22;6737;51.480;11.962;2023-08-24T03:18:20;16.70;99.90
13336;DHT22;6737;51.480;11.962;2023-08-24T03:20:46;16.70;99.90
13336;DHT22;6737;51.480;11.962;2023-08-24T03:23:13;16.70;99.90
13336;DHT22;6737;51.480;11.962;2023-08-24T03:25:40;16.70;99.90
13336;DHT22;6737;51.480;11.962;2023-08-24T03:28:08;16.70;99.90
13336;DHT22;6737;51.480;11.962;2023-08-24T03:30:36;16.60;99.90
13336;DHT22;6737;51.480;11.962;2023-08-24T03:33:02;16.60;99.90
13336;DHT22;6737;51.480;11.962;2023-08-24T03:35:30;16.70;99.90
13336;DHT22;6737;51.480;11.962;2023-08-24T03:37:56;16.70;99.90
13336;DHT22;6737;51.480;11.962;2023-08-24T03:40:22;16.80;99.90
13336;DHT22;6737;51.480;11.962;2023-08-24T03:42:48;16.70;99.90
13336;DHT22;6737;51.480;11.962;2023-08-24T03:45:14;16.60;99.90
13336;DHT22;6737;51.480;11.962;2023-08-24T03:47:39;16.70;99.90
13336;DHT22;6737;51.480;11.962;2023-08-24T03:50:06;16.60;99.90
13336;DHT22;6737;51.480;11.962;2023-08-24T03:52:32;16.60;99.90
13336;DHT22;6737;51.480;11.962;2023-08-24T03:54:58;16.60;99.90
13336;DHT22;6737;51.480;11.962;2023-08-24T03:57:23;16.50;99.90
13336;DHT22;6737;51.480;11.962;2023-08-24T03:59:49;16.50;99.90
13336;DHT22;6737;51.480;11.962;2023-08-24T04:02:15;16.50;99.90
13336;DHT22;6737;51.480;11.962;2023-08-24T04:04:41;16.50;99.90
13336;DHT22;6737;51.480;11.962;2023-08-24T04:07:06;16.50;99.90
13336;DHT22;6737;51.480;11.962;2023-08-24T04:09:32;16.50;99.90
13336;DHT22;6737;51.480;11.962;2023-08-24T04:11:58;16.40;99.90
13336;DHT22;6737;51.480;11.962;2023-08-24T04:14:24;16.40;99.90
13336;DHT22;6737;51.480;11.962;2023-08-24T04:16:49;16.40;99.90
13336;DHT22;6737;51.480;11.962;2023-08-24T04:19:15;16.40;99.90
13336;DHT22;6737;51.480;11.962;2023-08-24T04:21:41;16.30;99.90
13336;DHT22;6737;51.480;11.962;2023-08-24T04:24:07;16.30;99.90
13336;DHT22;6737;51.480;11.962;2023-08-24T04:26:33;16.30;99.90
13336;DHT22;6737;51.480;11.962;2023-08-24T04:28:58;16.30;99.90
13336;DHT22;6737;51.480;11.962;2023-08-24T04:31:24;16.20;99.90
13336;DHT22;6737;51.480;11.962;2023-08-24T04:33:51;16.30;99.90
13336;DHT22;6737;51.480;11.962;2023-08-24T04:36:17;16.30;99.90
13336;DHT22;6737;51.480;11.962;2023-08-24T04:38:43;16.30;99.90
13336;DHT22;6737;51.480;11.962;2023-08-24T04:41:09;16.40;99.90
13336;DHT22;6737;51.480;11.962;2023-08-24T04:43:36;16.40;99.90
13336;DHT22;6737;51.480;11.962;2023-08-24T04:46:03;16.40;99.90
13336;DHT22;6737;51.480;11.962;2023-08-24T04:48:29;16.30;99.90
13336;DHT22;6737;51.480;11.962;2023-08-24T04:51:00;16.30;99.90
13336;DHT22;6737;51.480;11.962;2023-08-24T04:53:26;16.40;99.90
13336;DHT22;6737;51.480;11.962;2023-08-24T04:55:52;16.50;99.90
13336;DHT22;6737;51.480;11.962;2023-08-24T04:58:18;16.50;99.90
13336;DHT22;6737;51.480;11.962;2023-08-24T05:00:44;16.50;99.90
13336;DHT22;6737;51.480;11.962;2023-08-24T05:03:10;16.50;99.90
13336;DHT22;6737;51.480;11.962;2023-08-24T05:05:36;16.50;99.90
13336;DHT22;6737;51.480;11.962;2023-08-24T05:08:04;16.50;99.90
13336;DHT22;6737;51.480;11.962;2023-08-24T05:10:36;16.50;99.90
13336;DHT22;6737;51.480;11.962;2023-08-24T05:13:02;16.50;99.90
13336;DHT22;6737;51.480;11.962;2023-08-24T05:15:28;16.50;99.90
13336;DHT22;6737;51.480;11.962;2023-08-24T05:17:54;16.50;99.90
13336;DHT22;6737;51.480;11.962;2023-08-24T05:20:25;16.50;99.90
13336;DHT22;6737;51.480;11.962;2023-08-24T05:22:52;16.60;99.90
13336;DHT22;6737;51.480;11.962;2023-08-24T05:25:21;16.60;99.90
13336;DHT22;6737;51.480;11.962;2023-08-24T05:27:48;16.70;99.90
13336;DHT22;6737;51.480;11.962;2023-08-24T05:30:16;16.70;99.90
13336;DHT22;6737;51.480;11.962;2023-08-24T05:32:42;16.70;99.90
13336;DHT22;6737;51.480;11.962;2023-08-24T05:35:08;16.70;99.90
13336;DHT22;6737;51.480;11.962;2023-08-24T05:37:35;16.70;99.90
13336;DHT22;6737;51.480;11.962;2023-08-24T05:40:01;16.80;99.90
13336;DHT22;6737;51.480;11.962;2023-08-24T05:42:27;16.90;99.90
13336;DHT22;6737;51.480;11.962;2023-08-24T05:44:53;16.90;99.90
13336;DHT22;6737;51.480;11.962;2023-08-24T05:47:19;16.90;99.90
13336;DHT22;6737;51.480;11.962;2023-08-24T05:49:45;17.00;99.90
13336;DHT22;6737;51.480;11.962;2023-08-24T05:52:11;17.10;99.90
13336;DHT22;6737;51.480;11.962;2023-08-24T05:54:37;17.10;99.90
13336;DHT22;6737;51.480;11.962;2023-08-24T05:57:03;17.20;99.90
13336;DHT22;6737;51.480;11.962;2023-08-24T05:59:30;17.20;99.90
13336;DHT22;6737;51.480;11.962;2023-08-24T06:01:56;17.20;99.90
13336;DHT22;6737;51.480;11.962;2023-08-24T06:04:22;17.30;99.90
13336;DHT22;6737;51.480;11.962;2023-08-24T06:06:48;17.40;99.90
13336;DHT22;6737;51.480;11.962;2023-08-24T06:09:13;17.40;99.90
13336;DHT22;6737;51.480;11.962;2023-08-24T06:11:40;17.50;99.90
13336;DHT22;6737;51.480;11.962;2023-08-24T06:14:06;17.50;99.90
13336;DHT22;6737;51.480;11.962;2023-08-24T06:16:32;17.60;99.90
13336;DHT22;6737;51.480;11.962;2023-08-24T06:18:58;17.60;99.90
13336;DHT22;6737;51.480;11.962;2023-08-24T06:21:24;17.70;99.90
13336;DHT22;6737;51.480;11.962;2023-08-24T06:23:50;17.80;99.90
13336;DHT22;6737;51.480;11.962;2023-08-24T06:26:17;17.90;99.90
13336;DHT22;6737;51.480;11.962;2023-08-24T06:28:43;17.90;99.90
13336;DHT22;6737;51.480;11.962;2023-08-24T06:31:09;18.00;99.90
13336;DHT22;6737;51.480;11.962;2023-08-24T06:33:36;18.10;99.90
13336;DHT22;6737;51.480;11.962;2023-08-24T06:36:03;18.10;99.90
13336;DHT22;6737;51.480;11.962;2023-08-24T06:38:33;18.20;99.90
13336;DHT22;6737;51.480;11.962;2023-08-24T06:40:59;18.30;99.90
13336;DHT22;6737;51.480;11.962;2023-08-24T06:43:26;18.30;99.90
13336;DHT22;6737;51.480;11.962;2023-08-24T06:45:52;18.40;99.90
13336;DHT22;6737;51.480;11.962;2023-08-24T06:48:17;18.40;99.90
13336;DHT22;6737;51.480;11.962;2023-08-24T06:50:44;18.40;99.90
13336;DHT22;6737;51.480;11.962;2023-08-24T06:53:09;18.50;99.90
13336;DHT22;6737;51.480;11.962;2023-08-24T06:55:35;18.50;99.90
13336;DHT22;6737;51.480;11.962;2023-08-24T06:58:02;18.70;99.90
13336;DHT22;6737;51.480;11.962;2023-08-24T07:00:31;18.70;99.90
13336;DHT22;6737;51.480;11.962;2023-08-24T07:02:57;18.80;99.90
13336;DHT22;6737;51.480;11.962;2023-08-24T07:05:23;18.90;99.90
13336;DHT22;6737;51.480;11.962;2023-08-24T07:07:52;19.00;99.90
13336;DHT22;6737;51.480;11.962;2023-08-24T07:10:20;19.10;99.90
13336;DHT22;6737;51.480;11.962;2023-08-24T07:12:46;19.20;99.90
13336;DHT22;6737;51.480;11.962;2023-08-24T07:15:12;19.30;99.90
13336;DHT22;6737;51.480;11.962;2023-08-24T07:17:38;19.40;99.90
13336;DHT22;6737;51.480;11.962;2023-08-24T07:20:04;19.40;99.90
13336;DHT22;6737;51.480;11.962;2023-08-24T07:22:34;19.50;99.90
13336;DHT22;6737;51.480;11.962;2023-08-24T07:25:01;19.60;99.90
13336;DHT22;6737;51.480;11.962;2023-08-24T07:27:34;19.70;99.90
13336;DHT22;6737;51.480;11.962;2023-08-24T07:30:03;19.80;99.90
13336;DHT22;6737;51.480;11.962;2023-08-24T07:32:31;19.90;99.90
13336;DHT22;6737;51.480;11.962;2023-08-24T07:34:57;20.00;99.90
13336;DHT22;6737;51.480;11.962;2023-08-24T07:37:25;20.10;99.90
13336;DHT22;6737;51.480;11.962;2023-08-24T07:39:52;20.20;99.90
13336;DHT22;6737;51.480;11.962;2023-08-24T07:42:21;20.40;99.90
13336;DHT22;6737;51.480;11.962;2023-08-24T07:44:50;20.50;99.90
13336;DHT22;6737;51.480;11.962;2023-08-24T07:47:16;20.60;99.90
13336;DHT22;6737;51.480;11.962;2023-08-24T07:49:42;20.70;99.90
13336;DHT22;6737;51.480;11.962;2023-08-24T07:52:13;20.80;99.90
13336;DHT22;6737;51.480;11.962;2023-08-24T07:54:39;21.00;99.90
13336;DHT22;6737;51.480;11.962;2023-08-24T07:57:05;21.00;99.90
13336;DHT22;6737;51.480;11.962;2023-08-24T07:59:32;21.00;99.90
13336;DHT22;6737;51.480;11.962;2023-08-24T08:01:58;21.00;99.90
13336;DHT22;6737;51.480;11.962;2023-08-24T08:04:23;21.10;99.90
13336;DHT22;6737;51.480;11.962;2023-08-24T08:06:49;21.10;99.90
13336;DHT22;6737;51.480;11.962;2023-08-24T08:09:15;21.20;99.90
13336;DHT22;6737;51.480;11.962;2023-08-24T08:11:42;21.20;99.90
13336;DHT22;6737;51.480;11.962;2023-08-24T08:14:09;21.30;99.90
13336;DHT22;6737;51.480;11.962;2023-08-24T08:16:35;21.30;99.90
13336;DHT22;6737;51.480;11.962;2023-08-24T08:19:02;21.30;99.90
13336;DHT22;6737;51.480;11.962;2023-08-24T08:21:28;21.30;99.90
13336;DHT22;6737;51.480;11.962;2023-08-24T08:23:55;21.30;99.90
13336;DHT22;6737;51.480;11.962;2023-08-24T08:26:21;21.30;99.90
13336;DHT22;6737;51.480;11.962;2023-08-24T08:28:47;21.30;99.90
13336;DHT22;6737;51.480;11.962;2023-08-24T08:31:13;21.30;99.90
13336;DHT22;6737;51.480;11.962;2023-08-24T08:33:38;21.30;99.90
13336;DHT22;6737;51.480;11.962;2023-08-24T08:36:04;21.40;99.90
13336;DHT22;6737;51.480;11.962;2023-08-24T08:38:30;21.40;99.90
13336;DHT22;6737;51.480;11.962;2023-08-24T08:41:01;21.40;99.90
13336;DHT22;6737;51.480;11.962;2023-08-24T08:43:28;21.50;99.90
13336;DHT22;6737;51.480;11.962;2023-08-24T08:45:56;21.50;99.90
13336;DHT22;6737;51.480;11.962;2023-08-24T08:48:23;21.50;99.90
13336;DHT22;6737;51.480;11.962;2023-08-24T08:50:52;21.50;99.90
13336;DHT22;6737;51.480;11.962;2023-08-24T08:53:22;21.60;99.90
13336;DHT22;6737;51.480;11.962;2023-08-24T08:55:52;21.50;99.90
13336;DHT22;6737;51.480;11.962;2023-08-24T08:58:20;21.60;99.90
13336;DHT22;6737;51.480;11.962;2023-08-24T09:00:47;21.70;99.90
13336;DHT22;6737;51.480;11.962;2023-08-24T09:03:17;21.70;99.90
13336;DHT22;6737;51.480;11.962;2023-08-24T09:05:43;21.70;99.90
13336;DHT22;6737;51.480;11.962;2023-08-24T09:08:12;21.70;99.90
13336;DHT22;6737;51.480;11.962;2023-08-24T09:10:38;21.80;99.90
13336;DHT22;6737;51.480;11.962;2023-08-24T09:13:04;21.90;99.90
13336;DHT22;6737;51.480;11.962;2023-08-24T09:15:34;21.90;99.90
13336;DHT22;6737;51.480;11.962;2023-08-24T09:18:01;21.90;99.90
13336;DHT22;6737;51.480;11.962;2023-08-24T09:20:28;21.90;99.90
13336;DHT22;6737;51.480;11.962;2023-08-24T09:22:55;22.00;99.90
13336;DHT22;6737;51.480;11.962;2023-08-24T09:25:23;22.00;99.90
13336;DHT22;6737;51.480;11.962;2023-08-24T09:28:03;22.10;99.90
13336;DHT22;6737;51.480;11.962;2023-08-24T09:30:37;22.20;99.90
13336;DHT22;6737;51.480;11.962;2023-08-24T09:33:04;22.20;99.90
13336;DHT22;6737;51.480;11.962;2023-08-24T09:35:35;22.30;99.90
13336;DHT22;6737;51.480;11.962;2023-08-24T09:38:20;22.20;99.90
13336;DHT22;6737;51.480;11.962;2023-08-24T09:40:50;22.30;99.90
13336;DHT22;6737;51.480;11.962;2023-08-24T09:43:17;22.40;99.90
13336;DHT22;6737;51.480;11.962;2023-08-24T09:45:50;22.50;99.90
13336;DHT22;6737;51.480;11.962;2023-08-24T09:48:16;22.70;99.90
13336;DHT22;6737;51.480;11.962;2023-08-24T09:50:46;22.70;99.90
13336;DHT22;6737;51.480;11.962;2023-08-24T09:53:22;22.80;99.90
13336;DHT22;6737;51.480;11.962;2023-08-24T09:55:55;22.70;99.90
13336;DHT22;6737;51.480;11.962;2023-08-24T09:58:24;22.70;99.90
13336;DHT22;6737;51.480;11.962;2023-08-24T10:00:51;22.80;99.90
13336;DHT22;6737;51.480;11.962;2023-08-24T10:03:21;22.70;99.90
13336;DHT22;6737;51.480;11.962;2023-08-24T10:05:55;22.70;99.90
13336;DHT22;6737;51.480;11.962;2023-08-24T10:08:52;22.70;99.90
13336;DHT22;6737;51.480;11.962;2023-08-24T10:11:23;22.70;99.90
13336;DHT22;6737;51.480;11.962;2023-08-24T10:14:04;22.70;99.90
13336;DHT22;6737;51.480;11.962;2023-08-24T10:16:36;22.70;99.90
13336;DHT22;6737;51.480;11.962;2023-08-24T10:19:03;22.70;99.90
13336;DHT22;6737;51.480;11.962;2023-08-24T10:21:29;22.80;99.90
13336;DHT22;6737;51.480;11.962;2023-08-24T10:23:57;22.80;99.90
13336;DHT22;6737;51.480;11.962;2023-08-24T10:26:26;22.80;99.90
13336;DHT22;6737;51.480;11.962;2023-08-24T10:28:53;22.70;99.90
13336;DHT22;6737;51.480;11.962;2023-08-24T10:31:20;22.70;99.90
13336;DHT22;6737;51.480;11.962;2023-08-24T10:33:46;22.70;99.90
13336;DHT22;6737;51.480;11.962;2023-08-24T10:36:13;22.70;99.90
13336;DHT22;6737;51.480;11.962;2023-08-24T10:38:43;22.80;99.90
13336;DHT22;6737;51.480;11.962;2023-08-24T10:41:09;22.80;99.90
13336;DHT22;6737;51.480;11.962;2023-08-24T10:43:38;22.80;99.90
13336;DHT22;6737;51.480;11.962;2023-08-24T10:46:12;22.70;99.90
13336;DHT22;6737;51.480;11.962;2023-08-24T10:51:16;22.80;99.90
13336;DHT22;6737;51.480;11.962;2023-08-24T10:54:00;22.80;99.90
13336;DHT22;6737;51.480;11.962;2023-08-24T10:56:39;22.80;99.90
13336;DHT22;6737;51.480;11.962;2023-08-24T10:59:25;22.90;99.90
13336;DHT22;6737;51.480;11.962;2023-08-24T11:02:00;22.90;99.90
13336;DHT22;6737;51.480;11.962;2023-08-24T11:04:27;22.90;99.90
13336;DHT22;6737;51.480;11.962;2023-08-24T11:06:54;23.00;99.90
13336;DHT22;6737;51.480;11.962;2023-08-24T11:09:22;23.10;99.90
13336;DHT22;6737;51.480;11.962;2023-08-24T11:11:58;23.10;99.90
13336;DHT22;6737;51.480;11.962;2023-08-24T11:14:25;23.10;99.90
13336;DHT22;6737;51.480;11.962;2023-08-24T11:16:52;23.20;99.90
13336;DHT22;6737;51.480;11.962;2023-08-24T11:19:19;23.10;99.90
13336;DHT22;6737;51.480;11.962;2023-08-24T11:21:46;23.10;99.90
13336;DHT22;6737;51.480;11.962;2023-08-24T11:24:13;23.10;99.90
13336;DHT22;6737;51.480;11.962;2023-08-24T11:26:44;23.10;99.90
13336;DHT22;6737;51.480;11.962;2023-08-24T11:29:10;23.10;99.90
13336;DHT22;6737;51.480;11.962;2023-08-24T11:31:37;23.10;99.90
13336;DHT22;6737;51.480;11.962;2023-08-24T11:34:04;23.10;99.90
13336;DHT22;6737;51.480;11.962;2023-08-24T11:36:31;23.20;99.90
13336;DHT22;6737;51.480;11.962;2023-08-24T11:38:59;23.30;99.90
13336;DHT22;6737;51.480;11.962;2023-08-24T11:41:26;23.30;99.90
13336;DHT22;6737;51.480;11.962;2023-08-24T11:43:59;23.40;99.90
13336;DHT22;6737;51.480;11.962;2023-08-24T11:46:28;23.50;99.90
13336;DHT22;6737;51.480;11.962;2023-08-24T11:48:56;23.60;99.90
13336;DHT22;6737;51.480;11.962;2023-08-24T11:51:23;23.60;99.90
13336;DHT22;6737;51.480;11.962;2023-08-24T11:53:49;23.60;99.90
13336;DHT22;6737;51.480;11.962;2023-08-24T11:56:15;23.60;99.90
13336;DHT22;6737;51.480;11.962;2023-08-24T11:58:47;23.70;99.90
13336;DHT22;6737;51.480;11.962;2023-08-24T12:01:13;23.80;99.90
13336;DHT22;6737;51.480;11.962;2023-08-24T12:03:39;23.90;99.90
13336;DHT22;6737;51.480;11.962;2023-08-24T12:06:15;24.10;99.90
13336;DHT22;6737;51.480;11.962;2023-08-24T12:08:47;24.20;99.90
13336;DHT22;6737;51.480;11.962;2023-08-24T12:11:20;24.30;99.90
13336;DHT22;6737;51.480;11.962;2023-08-24T12:13:52;24.50;99.90
13336;DHT22;6737;51.480;11.962;2023-08-24T12:16:18;24.50;99.90
13336;DHT22;6737;51.480;11.962;2023-08-24T12:18:55;24.50;99.90
13336;DHT22;6737;51.480;11.962;2023-08-24T12:21:23;24.50;99.90
13336;DHT22;6737;51.480;11.962;2023-08-24T12:24:03;24.60;99.90
13336;DHT22;6737;51.480;11.962;2023-08-24T12:26:35;24.60;99.90
13336;DHT22;6737;51.480;11.962;2023-08-24T12:29:06;24.60;99.90
13336;DHT22;6737;51.480;11.962;2023-08-24T12:31:32;24.60;99.90
13336;DHT22;6737;51.480;11.962;2023-08-24T12:34:04;24.80;99.90
13336;DHT22;6737;51.480;11.962;2023-08-24T12:36:33;24.80;99.90
13336;DHT22;6737;51.480;11.962;2023-08-24T12:38:59;24.80;99.90
13336;DHT22;6737;51.480;11.962;2023-08-24T12:41:25;24.80;99.90
13336;DHT22;6737;51.480;11.962;2023-08-24T12:43:51;24.90;99.90
13336;DHT22;6737;51.480;11.962;2023-08-24T12:46:17;24.80;99.90
13336;DHT22;6737;51.480;11.962;2023-08-24T12:48:43;24.80;99.90
13336;DHT22;6737;51.480;11.962;2023-08-24T12:51:09;24.90;99.90
13336;DHT22;6737;51.480;11.962;2023-08-24T12:53:35;24.80;99.90
13336;DHT22;6737;51.480;11.962;2023-08-24T12:56:01;25.00;99.90
13336;DHT22;6737;51.480;11.962;2023-08-24T12:58:27;24.90;99.90
13336;DHT22;6737;51.480;11.962;2023-08-24T13:00:52;24.90;99.90
13336;DHT22;6737;51.480;11.962;2023-08-24T13:03:18;24.80;99.90
13336;DHT22;6737;51.480;11.962;2023-08-24T13:05:44;24.90;99.90
13336;DHT22;6737;51.480;11.962;2023-08-24T13:08:10;25.00;99.90
13336;DHT22;6737;51.480;11.962;2023-08-24T13:10:36;25.20;99.90
13336;DHT22;6737;51.480;11.962;2023-08-24T13:13:02;25.40;99.90
13336;DHT22;6737;51.480;11.962;2023-08-24T13:15:29;25.30;99.90
13336;DHT22;6737;51.480;11.962;2023-08-24T13:17:55;25.20;99.90
13336;DHT22;6737;51.480;11.962;2023-08-24T13:20:22;25.20;99.90
13336;DHT22;6737;51.480;11.962;2023-08-24T13:22:47;25.00;99.90
13336;DHT22;6737;51.480;11.962;2023-08-24T13:25:13;25.00;99.90
13336;DHT22;6737;51.480;11.962;2023-08-24T13:27:39;25.00;99.90
13336;DHT22;6737;51.480;11.962;2023-08-24T13:30:05;25.10;99.90
13336;DHT22;6737;51.480;11.962;2023-08-24T13:32:31;25.20;99.90
13336;DHT22;6737;51.480;11.962;2023-08-24T13:34:58;25.20;99.90
13336;DHT22;6737;51.480;11.962;2023-08-24T13:37:24;25.20;99.90
13336;DHT22;6737;51.480;11.962;2023-08-24T13:39:50;25.10;99.90
13336;DHT22;6737;51.480;11.962;2023-08-24T13:42:17;25.40;99.90
13336;DHT22;6737;51.480;11.962;2023-08-24T13:44:43;25.30;99.90
13336;DHT22;6737;51.480;11.962;2023-08-24T13:47:08;25.20;99.90
13336;DHT22;6737;51.480;11.962;2023-08-24T13:49:34;25.20;99.90
13336;DHT22;6737;51.480;11.962;2023-08-24T13:52:00;25.10;99.90
13336;DHT22;6737;51.480;11.962;2023-08-24T13:54:26;25.10;99.90
13336;DHT22;6737;51.480;11.962;2023-08-24T13:56:52;25.00;99.90
13336;DHT22;6737;51.480;11.962;2023-08-24T13:59:20;25.10;99.90
13336;DHT22;6737;51.480;11.962;2023-08-24T14:01:46;25.10;99.90
13336;DHT22;6737;51.480;11.962;2023-08-24T14:04:12;25.00;99.90
13336;DHT22;6737;51.480;11.962;2023-08-24T14:06:38;25.00;99.90
13336;DHT22;6737;51.480;11.962;2023-08-24T14:09:04;25.00;99.90
13336;DHT22;6737;51.480;11.962;2023-08-24T14:11:31;25.10;99.90
13336;DHT22;6737;51.480;11.962;2023-08-24T14:13:58;25.00;99.90
13336;DHT22;6737;51.480;11.962;2023-08-24T14:16:24;25.00;99.90
13336;DHT22;6737;51.480;11.962;2023-08-24T14:18:52;25.10;99.90
13336;DHT22;6737;51.480;11.962;2023-08-24T14:21:19;25.20;99.90
13336;DHT22;6737;51.480;11.962;2023-08-24T14:23:49;25.20;99.90
13336;DHT22;6737;51.480;11.962;2023-08-24T14:26:15;25.30;99.90
13336;DHT22;6737;51.480;11.962;2023-08-24T14:28:54;25.20;99.90
13336;DHT22;6737;51.480;11.962;2023-08-24T14:31:29;25.20;99.90
13336;DHT22;6737;51.480;11.962;2023-08-24T14:33:55;25.10;99.90
13336;DHT22;6737;51.480;11.962;2023-08-24T14:36:22;25.10;99.90
13336;DHT22;6737;51.480;11.962;2023-08-24T14:38:49;25.10;99.90
13336;DHT22;6737;51.480;11.962;2023-08-24T14:41:15;25.20;99.90
13336;DHT22;6737;51.480;11.962;2023-08-24T14:43:42;25.30;99.90
13336;DHT22;6737;51.480;11.962;2023-08-24T14:46:08;25.40;99.90
13336;DHT22;6737;51.480;11.962;2023-08-24T14:48:34;25.40;99.90
13336;DHT22;6737;51.480;11.962;2023-08-24T14:51:00;25.40;99.90
13336;DHT22;6737;51.480;11.962;2023-08-24T14:53:27;25.40;99.90
13336;DHT22;6737;51.480;11.962;2023-08-24T14:55:55;25.30;99.90
13336;DHT22;6737;51.480;11.962;2023-08-24T14:58:23;25.30;99.90
13336;DHT22;6737;51.480;11.962;2023-08-24T15:00:50;25.20;99.90
13336;DHT22;6737;51.480;11.962;2023-08-24T15:03:16;25.20;99.90
13336;DHT22;6737;51.480;11.962;2023-08-24T15:06:05;25.20;99.90
13336;DHT22;6737;51.480;11.962;2023-08-24T15:08:34;25.20;99.90
13336;DHT22;6737;51.480;11.962;2023-08-24T15:11:01;25.20;99.90
13336;DHT22;6737;51.480;11.962;2023-08-24T15:13:29;25.10;99.90
13336;DHT22;6737;51.480;11.962;2023-08-24T15:15:57;25.00;99.90
13336;DHT22;6737;51.480;11.962;2023-08-24T15:18:23;25.00;99.90
13336;DHT22;6737;51.480;11.962;2023-08-24T15:20:49;25.00;99.90
13336;DHT22;6737;51.480;11.962;2023-08-24T15:23:26;24.90;99.90
13336;DHT22;6737;51.480;11.962;2023-08-24T15:25:56;24.80;99.90
13336;DHT22;6737;51.480;11.962;2023-08-24T15:28:23;24.90;99.90
13336;DHT22;6737;51.480;11.962;2023-08-24T15:30:49;24.80;99.90
13336;DHT22;6737;51.480;11.962;2023-08-24T15:33:17;24.80;99.90
13336;DHT22;6737;51.480;11.962;2023-08-24T15:35:43;24.80;99.90
13336;DHT22;6737;51.480;11.962;2023-08-24T15:38:10;24.90;99.90
13336;DHT22;6737;51.480;11.962;2023-08-24T15:40:37;24.80;99.90
13336;DHT22;6737;51.480;11.962;2023-08-24T15:43:04;25.00;99.90